Time,TemperatureF,DewpointF,PressureIn,WindDirection,WindDirectionDegrees,WindSpeedMPH,WindSpeedGustMPH,Humidity,HourlyPrecipIn,Conditions,Clouds,dailyrainin,SoftwareType,DateUTC
2013-11-18 00:09:00,35.0,31.2,29.40,West,276,6.0,10.8,86,0.00,,,0.00,WUHU216HW,2013-11-18 06:09:00,
2013-11-18 00:19:00,35.2,31.1,29.40,WNW,284,5.8,9.5,85,0.00,,,0.00,WUHU216HW,2013-11-18 06:19:00,
2013-11-18 00:29:00,35.0,30.9,29.40,WNW,285,7.6,12.5,85,0.00,,,0.00,WUHU216HW,2013-11-18 06:29:00,
2013-11-18 00:39:00,34.8,30.7,29.40,West,270,6.1,9.5,85,0.00,,,0.00,WUHU216HW,2013-11-18 06:39:00,
2013-11-18 00:49:00,34.8,30.4,29.41,WNW,289,7.6,10.4,84,0.00,,,0.00,WUHU216HW,2013-11-18 06:49:00,
2013-11-18 00:59:00,34.8,30.4,29.41,WNW,291,8.2,13.0,84,0.00,,,0.00,WUHU216HW,2013-11-18 06:59:00,
2013-11-18 01:09:00,34.4,30.0,29.41,West,274,5.6,10.8,84,0.00,,,0.00,WUHU216HW,2013-11-18 07:09:00,
2013-11-18 01:19:00,34.1,30.0,29.41,WNW,290,6.2,9.5,85,0.00,,,0.00,WUHU216HW,2013-11-18 07:19:00,
2013-11-18 01:29:00,34.1,30.0,29.41,West,273,7.3,11.4,85,0.00,,,0.00,WUHU216HW,2013-11-18 07:29:00,
2013-11-18 01:39:00,34.1,30.0,29.42,WNW,302,5.3,8.4,85,0.00,,,0.00,WUHU216HW,2013-11-18 07:39:00,
2013-11-18 01:49:00,33.5,29.5,29.41,WSW,248,2.5,4.1,85,0.00,,,0.00,WUHU216HW,2013-11-18 07:49:00,
2013-11-18 01:59:00,33.0,29.5,29.42,WSW,246,3.0,5.1,87,0.00,,,0.00,WUHU216HW,2013-11-18 07:59:00,
2013-11-18 02:09:00,33.0,29.5,29.42,West,272,3.7,7.0,87,0.00,,,0.00,WUHU216HW,2013-11-18 08:09:00,
2013-11-18 02:19:00,33.0,29.8,29.43,WSW,250,4.7,6.0,88,0.00,,,0.00,WUHU216HW,2013-11-18 08:19:00,
2013-11-18 02:29:00,32.8,29.3,29.43,West,274,5.7,10.0,87,0.00,,,0.00,WUHU216HW,2013-11-18 08:29:00,
2013-11-18 02:39:00,32.8,29.0,29.43,WNW,290,7.3,11.4,86,0.00,,,0.00,WUHU216HW,2013-11-18 08:39:00,
2013-11-18 02:49:00,32.8,29.0,29.44,West,264,6.7,11.1,86,0.00,,,0.00,WUHU216HW,2013-11-18 08:49:00,
2013-11-18 02:59:00,32.6,28.3,29.43,WNW,293,6.4,11.4,84,0.00,,,0.00,WUHU216HW,2013-11-18 08:59:00,
2013-11-18 03:09:00,32.6,28.6,29.44,West,279,8.5,11.7,85,0.00,,,0.00,WUHU216HW,2013-11-18 09:09:00,
2013-11-18 03:19:00,32.3,28.0,29.44,WNW,293,6.5,10.4,84,0.00,,,0.00,WUHU216HW,2013-11-18 09:19:00,
2013-11-18 03:29:00,32.1,27.8,29.45,WNW,292,6.2,9.0,84,0.00,,,0.00,WUHU216HW,2013-11-18 09:29:00,
2013-11-18 03:39:00,31.9,27.9,29.45,West,270,6.4,9.8,85,0.00,,,0.00,WUHU216HW,2013-11-18 09:39:00,
2013-11-18 03:49:00,31.7,27.4,29.46,West,274,5.3,10.8,84,0.00,,,0.00,WUHU216HW,2013-11-18 09:49:00,
2013-11-18 03:59:00,31.4,27.4,29.46,West,270,4.5,6.0,85,0.00,,,0.00,WUHU216HW,2013-11-18 09:59:00,
2013-11-18 04:09:00,31.2,27.5,29.47,WNW,283,4.0,8.1,86,0.00,,,0.00,WUHU216HW,2013-11-18 10:09:00,
2013-11-18 04:19:00,30.8,27.1,29.47,West,277,3.9,8.1,86,0.00,,,0.00,WUHU216HW,2013-11-18 10:19:00,
2013-11-18 04:29:00,30.5,27.1,29.47,West,263,3.7,5.7,87,0.00,,,0.00,WUHU216HW,2013-11-18 10:29:00,
2013-11-18 04:39:00,30.5,27.3,29.47,West,267,5.1,9.5,88,0.00,,,0.00,WUHU216HW,2013-11-18 10:39:00,
2013-11-18 04:49:00,30.5,27.3,29.48,NW,305,5.2,9.5,88,0.00,,,0.00,WUHU216HW,2013-11-18 10:49:00,
2013-11-18 04:59:00,30.7,27.5,29.48,WNW,292,5.1,8.1,88,0.00,,,0.00,WUHU216HW,2013-11-18 10:59:00,
2013-11-18 05:09:00,31.0,27.5,29.49,WNW,284,8.3,13.0,87,0.00,,,0.00,WUHU216HW,2013-11-18 11:09:00,
2013-11-18 05:19:00,31.2,27.5,29.49,WNW,287,7.6,12.2,86,0.00,,,0.00,WUHU216HW,2013-11-18 11:19:00,
2013-11-18 05:29:00,31.2,27.2,29.50,WNW,288,9.5,12.8,85,0.00,,,0.00,WUHU216HW,2013-11-18 11:29:00,
2013-11-18 05:39:00,30.8,26.5,29.50,WNW,291,8.7,13.0,84,0.00,,,0.00,WUHU216HW,2013-11-18 11:39:00,
2013-11-18 05:49:00,30.8,26.2,29.50,NW,317,9.2,12.8,83,0.00,,,0.00,WUHU216HW,2013-11-18 11:49:00,
2013-11-18 05:59:00,30.8,26.5,29.50,West,279,7.7,10.4,84,0.00,,,0.00,WUHU216HW,2013-11-18 11:59:00,
2013-11-18 06:09:00,30.8,26.5,29.51,West,269,7.3,10.4,84,0.00,,,0.00,WUHU216HW,2013-11-18 12:09:00,
2013-11-18 06:19:00,30.8,26.5,29.52,WNW,293,5.0,8.1,84,0.00,,,0.00,WUHU216HW,2013-11-18 12:19:00,
2013-11-18 06:29:00,30.8,26.5,29.53,WNW,287,6.6,12.5,84,0.00,,,0.00,WUHU216HW,2013-11-18 12:29:00,
2013-11-18 06:39:00,30.8,26.2,29.53,West,280,8.3,14.7,83,0.00,,,0.00,WUHU216HW,2013-11-18 12:39:00,
2013-11-18 06:49:00,30.7,25.8,29.54,NW,321,9.4,14.7,82,0.00,,,0.00,WUHU216HW,2013-11-18 12:49:00,
2013-11-18 06:59:00,30.5,25.7,29.54,WNW,287,7.7,12.5,82,0.00,,,0.00,WUHU216HW,2013-11-18 12:59:00,
2013-11-18 07:09:00,30.7,25.8,29.55,WNW,295,6.8,10.0,82,0.00,,,0.00,WUHU216HW,2013-11-18 13:09:00,
2013-11-18 07:19:00,30.7,25.6,29.55,WNW,301,6.7,12.8,81,0.00,,,0.00,WUHU216HW,2013-11-18 13:19:00,
2013-11-18 07:29:00,30.7,25.6,29.56,NW,304,8.5,16.8,81,0.00,,,0.00,WUHU216HW,2013-11-18 13:29:00,
2013-11-18 07:39:00,30.5,25.4,29.56,WNW,301,8.2,13.8,81,0.00,,,0.00,WUHU216HW,2013-11-18 13:39:00,
2013-11-18 07:49:00,30.5,25.4,29.57,WNW,298,9.3,14.7,81,0.00,,,0.00,WUHU216HW,2013-11-18 13:49:00,
2013-11-18 07:59:00,30.7,25.3,29.58,NW,311,8.9,16.0,80,0.00,,,0.00,WUHU216HW,2013-11-18 13:59:00,
2013-11-18 08:09:00,31.0,25.6,29.58,WNW,303,11.7,18.2,80,0.00,,,0.00,WUHU216HW,2013-11-18 14:09:00,
2013-11-18 08:19:00,31.2,25.5,29.58,NW,305,11.3,21.5,79,0.00,,,0.00,WUHU216HW,2013-11-18 14:19:00,
2013-11-18 08:30:00,31.2,25.5,29.59,WNW,295,9.0,13.0,79,0.00,,,0.00,WUHU216HW,2013-11-18 14:30:00,
2013-11-18 08:40:00,31.6,26.1,29.59,WNW,287,8.5,12.2,80,0.00,,,0.00,WUHU216HW,2013-11-18 14:40:00,
2013-11-18 08:50:00,31.7,25.3,29.59,WNW,303,11.1,20.1,77,0.00,,,0.00,WUHU216HW,2013-11-18 14:50:00,
2013-11-18 09:00:00,32.1,25.4,29.60,West,279,11.4,15.2,76,0.00,,,0.00,WUHU216HW,2013-11-18 15:00:00,
2013-11-18 09:10:00,32.5,25.8,29.60,WNW,298,8.4,14.1,76,0.00,,,0.00,WUHU216HW,2013-11-18 15:10:00,
2013-11-18 09:20:00,33.4,26.7,29.61,West,277,9.1,13.8,76,0.00,,,0.00,WUHU216HW,2013-11-18 15:20:00,
2013-11-18 09:30:00,33.0,25.7,29.61,WNW,297,11.3,22.2,74,0.00,,,0.00,WUHU216HW,2013-11-18 15:30:00,
2013-11-18 09:40:00,33.4,26.1,29.62,WNW,303,9.1,15.2,74,0.00,,,0.00,WUHU216HW,2013-11-18 15:40:00,
2013-11-18 09:50:00,35.3,28.2,29.63,NW,313,7.4,13.8,75,0.00,,,0.00,WUHU216HW,2013-11-18 15:50:00,
2013-11-18 10:00:00,35.7,27.6,29.64,NW,310,8.4,21.2,72,0.00,,,0.00,WUHU216HW,2013-11-18 16:00:00,
2013-11-18 10:10:00,35.5,27.1,29.64,NW,315,8.9,15.8,71,0.00,,,0.00,WUHU216HW,2013-11-18 16:10:00,
2013-11-18 10:20:00,36.4,28.0,29.64,NW,305,6.6,11.7,71,0.00,,,0.00,WUHU216HW,2013-11-18 16:20:00,
2013-11-18 10:30:00,35.3,26.9,29.65,WNW,282,9.0,12.5,71,0.00,,,0.00,WUHU216HW,2013-11-18 16:30:00,
2013-11-18 10:40:00,35.5,27.1,29.65,NW,315,9.2,15.2,71,0.00,,,0.00,WUHU216HW,2013-11-18 16:40:00,
2013-11-18 10:50:00,36.4,27.3,29.65,West,265,10.6,17.1,69,0.00,,,0.00,WUHU216HW,2013-11-18 16:50:00,
2013-11-18 11:00:00,37.7,28.2,29.65,WNW,299,10.0,19.2,68,0.00,,,0.00,WUHU216HW,2013-11-18 17:00:00,
2013-11-18 11:10:00,38.6,28.3,29.66,WNW,283,8.4,17.4,66,0.00,,,0.00,WUHU216HW,2013-11-18 17:10:00,
2013-11-18 11:20:00,39.1,28.0,29.66,WNW,295,10.8,17.1,64,0.00,,,0.00,WUHU216HW,2013-11-18 17:20:00,
2013-11-18 11:30:00,39.3,28.2,29.66,WNW,293,10.6,18.2,64,0.00,,,0.00,WUHU216HW,2013-11-18 17:30:00,
2013-11-18 11:40:00,40.0,28.5,29.66,NW,305,9.9,16.0,63,0.00,,,0.00,WUHU216HW,2013-11-18 17:40:00,
2013-11-18 11:50:00,42.2,30.6,29.67,West,280,6.3,14.7,63,0.00,,,0.00,WUHU216HW,2013-11-18 17:50:00,
2013-11-18 12:00:00,41.5,28.3,29.67,West,276,8.3,12.5,59,0.00,,,0.00,WUHU216HW,2013-11-18 18:00:00,
2013-11-18 12:10:00,42.0,29.2,29.67,WNW,300,7.5,9.8,60,0.00,,,0.00,WUHU216HW,2013-11-18 18:10:00,
2013-11-18 12:20:00,42.0,29.6,29.67,WNW,285,6.9,11.4,61,0.00,,,0.00,WUHU216HW,2013-11-18 18:20:00,
2013-11-18 12:30:00,42.4,29.1,29.68,WNW,289,8.8,13.8,59,0.00,,,0.00,WUHU216HW,2013-11-18 18:30:00,
2013-11-18 12:40:00,42.4,29.1,29.68,WNW,302,8.1,11.4,59,0.00,,,0.00,WUHU216HW,2013-11-18 18:40:00,
2013-11-18 12:50:00,41.8,28.2,29.69,NW,312,10.4,19.8,58,0.00,,,0.00,WUHU216HW,2013-11-18 18:50:00,
2013-11-18 13:00:00,41.8,27.7,29.69,West,273,8.3,14.7,57,0.00,,,0.00,WUHU216HW,2013-11-18 19:00:00,
2013-11-18 13:10:00,42.0,27.5,29.69,WNW,295,11.0,15.8,56,0.00,,,0.00,WUHU216HW,2013-11-18 19:10:00,
2013-11-18 13:20:00,42.0,27.5,29.70,WNW,300,11.1,14.4,56,0.00,,,0.00,WUHU216HW,2013-11-18 19:20:00,
2013-11-18 13:30:00,42.2,27.7,29.70,WNW,291,9.8,17.1,56,0.00,,,0.00,WUHU216HW,2013-11-18 19:30:00,
2013-11-18 13:40:00,42.0,27.9,29.71,NW,326,8.6,11.7,57,0.00,,,0.00,WUHU216HW,2013-11-18 19:40:00,
2013-11-18 13:50:00,42.7,27.7,29.71,NW,317,9.0,12.5,55,0.00,,,0.00,WUHU216HW,2013-11-18 19:50:00,
2013-11-18 14:00:00,42.0,26.6,29.71,NW,309,12.1,22.8,54,0.00,,,0.00,WUHU216HW,2013-11-18 20:00:00,
2013-11-18 14:10:00,41.1,25.3,29.71,WNW,288,12.1,20.4,53,0.00,,,0.00,WUHU216HW,2013-11-18 20:10:00,
2013-11-18 14:20:00,40.2,25.3,29.71,WNW,302,9.4,18.8,55,0.00,,,0.00,WUHU216HW,2013-11-18 20:20:00,
2013-11-18 14:30:00,39.1,24.7,29.72,NW,308,9.9,13.3,56,0.00,,,0.00,WUHU216HW,2013-11-18 20:30:00,
2013-11-18 14:40:00,37.9,24.5,29.72,WNW,302,7.3,12.8,58,0.00,,,0.00,WUHU216HW,2013-11-18 20:40:00,
2013-11-18 14:50:00,37.0,24.0,29.72,NW,305,8.4,15.8,59,0.00,,,0.00,WUHU216HW,2013-11-18 20:50:00,
2013-11-18 15:00:00,36.4,23.9,29.72,WNW,301,10.5,17.8,60,0.00,,,0.00,WUHU216HW,2013-11-18 21:00:00,
2013-11-18 15:10:00,35.9,23.8,29.73,WNW,285,10.4,13.8,61,0.00,,,0.00,WUHU216HW,2013-11-18 21:10:00,
2013-11-18 15:20:00,35.7,24.0,29.73,WNW,283,7.5,11.4,62,0.00,,,0.00,WUHU216HW,2013-11-18 21:20:00,
2013-11-18 15:30:00,35.3,24.0,29.73,WNW,291,6.6,17.4,63,0.00,,,0.00,WUHU216HW,2013-11-18 21:30:00,
2013-11-18 15:40:00,35.0,23.7,29.74,West,274,7.8,10.0,63,0.00,,,0.00,WUHU216HW,2013-11-18 21:40:00,
2013-11-18 15:50:00,34.6,23.7,29.74,WNW,293,5.7,13.3,64,0.00,,,0.00,WUHU216HW,2013-11-18 21:50:00,
2013-11-18 16:00:00,34.3,23.8,29.75,NW,304,5.8,11.4,65,0.00,,,0.00,WUHU216HW,2013-11-18 22:00:00,
2013-11-18 16:10:00,34.1,24.0,29.75,WNW,288,5.3,8.1,66,0.00,,,0.00,WUHU216HW,2013-11-18 22:10:00,
2013-11-18 16:20:00,33.5,23.8,29.75,WNW,298,4.9,11.4,67,0.00,,,0.00,WUHU216HW,2013-11-18 22:20:00,
2013-11-18 16:30:00,33.2,23.5,29.76,West,275,4.2,7.0,67,0.00,,,0.00,WUHU216HW,2013-11-18 22:30:00,
2013-11-18 16:40:00,32.6,23.3,29.76,WNW,299,3.4,7.0,68,0.00,,,0.00,WUHU216HW,2013-11-18 22:40:00,
2013-11-18 16:50:00,31.9,22.9,29.76,WNW,303,2.2,3.8,69,0.00,,,0.00,WUHU216HW,2013-11-18 22:50:00,
2013-11-18 17:00:00,31.6,23.3,29.77,WNW,287,3.2,5.7,71,0.00,,,0.00,WUHU216HW,2013-11-18 23:00:00,
2013-11-18 17:10:00,31.2,22.6,29.78,West,277,2.4,4.6,70,0.00,,,0.00,WUHU216HW,2013-11-18 23:10:00,
2013-11-18 17:20:00,30.7,22.5,29.78,WNW,289,2.6,6.8,71,0.00,,,0.00,WUHU216HW,2013-11-18 23:20:00,
2013-11-18 17:30:00,30.5,22.6,29.78,NW,312,2.9,7.0,72,0.00,,,0.00,WUHU216HW,2013-11-18 23:30:00,
2013-11-18 17:40:00,30.3,22.7,29.79,WNW,294,2.5,3.8,73,0.00,,,0.00,WUHU216HW,2013-11-18 23:40:00,
2013-11-18 17:50:00,29.9,22.3,29.79,WNW,287,2.3,4.6,73,0.00,,,0.00,WUHU216HW,2013-11-18 23:50:00,
2013-11-18 18:00:00,29.6,22.1,29.79,NW,312,2.5,6.5,73,0.00,,,0.00,WUHU216HW,2013-11-19 00:00:00,
2013-11-18 18:10:00,29.4,22.2,29.80,NW,304,2.6,4.6,74,0.00,,,0.00,WUHU216HW,2013-11-19 00:10:00,
2013-11-18 18:20:00,29.0,22.1,29.80,WNW,285,1.4,2.7,75,0.00,,,0.00,WUHU216HW,2013-11-19 00:20:00,
2013-11-18 18:30:00,29.0,22.4,29.80,West,276,2.7,5.1,76,0.00,,,0.00,WUHU216HW,2013-11-19 00:30:00,
2013-11-18 18:40:00,28.7,22.1,29.81,West,278,1.2,1.9,76,0.00,,,0.00,WUHU216HW,2013-11-19 00:40:00,
2013-11-18 18:50:00,28.3,21.7,29.81,WNW,287,2.2,3.8,76,0.00,,,0.00,WUHU216HW,2013-11-19 00:50:00,
2013-11-18 19:00:00,28.0,21.7,29.81,NW,305,1.6,4.6,77,0.00,,,0.00,WUHU216HW,2013-11-19 01:00:00,
2013-11-18 19:10:00,27.6,21.4,29.82,WNW,282,1.5,3.3,77,0.00,,,0.00,WUHU216HW,2013-11-19 01:10:00,
2013-11-18 19:20:00,27.4,21.5,29.82,WNW,282,1.8,5.1,78,0.00,,,0.00,WUHU216HW,2013-11-19 01:20:00,
2013-11-18 19:30:00,27.1,21.2,29.82,WNW,282,1.8,3.3,78,0.00,,,0.00,WUHU216HW,2013-11-19 01:30:00,
2013-11-18 19:40:00,26.7,20.8,29.83,West,270,0.8,1.7,78,0.00,,,0.00,WUHU216HW,2013-11-19 01:40:00,
2013-11-18 19:50:00,26.3,20.7,29.83,WNW,290,1.5,2.7,79,0.00,,,0.00,WUHU216HW,2013-11-19 01:50:00,
2013-11-18 20:00:00,26.2,20.6,29.84,WNW,282,1.7,2.4,79,0.00,,,0.00,WUHU216HW,2013-11-19 02:00:00,
2013-11-18 20:10:00,26.0,20.4,29.84,West,268,0.7,1.0,79,0.00,,,0.00,WUHU216HW,2013-11-19 02:10:00,
2013-11-18 20:20:00,25.6,20.3,29.84,WNW,293,1.0,1.7,80,0.00,,,0.00,WUHU216HW,2013-11-19 02:20:00,
2013-11-18 20:30:00,25.3,20.0,29.84,WNW,282,0.5,1.0,80,0.00,,,0.00,WUHU216HW,2013-11-19 02:30:00,
2013-11-18 20:40:00,25.1,20.1,29.85,West,276,0.6,1.0,81,0.00,,,0.00,WUHU216HW,2013-11-19 02:40:00,
2013-11-18 20:50:00,24.7,19.7,29.85,WNW,289,0.8,1.7,81,0.00,,,0.00,WUHU216HW,2013-11-19 02:50:00,
2013-11-18 21:00:00,24.5,19.8,29.85,WNW,287,0.9,1.7,82,0.00,,,0.00,WUHU216HW,2013-11-19 03:00:00,
2013-11-18 21:10:00,24.4,19.7,29.85,West,281,0.6,1.9,82,0.00,,,0.00,WUHU216HW,2013-11-19 03:10:00,
2013-11-18 21:20:00,24.2,19.8,29.85,WNW,298,0.5,0.6,83,0.00,,,0.00,WUHU216HW,2013-11-19 03:20:00,
2013-11-18 21:31:00,24.0,19.6,29.85,West,277,0.8,3.8,83,0.00,,,0.00,WUHU216HW,2013-11-19 03:31:00,
2013-11-18 21:41:00,23.6,19.2,29.86,WNW,294,0.8,1.7,83,0.00,,,0.00,WUHU216HW,2013-11-19 03:41:00,
2013-11-18 21:51:00,23.3,18.9,29.86,West,270,0.6,0.6,83,0.00,,,0.00,WUHU216HW,2013-11-19 03:51:00,
2013-11-18 22:01:00,22.7,18.0,29.86,West,277,0.4,0.6,82,0.00,,,0.00,WUHU216HW,2013-11-19 04:01:00,
2013-11-18 22:11:00,22.6,18.2,29.87,WNW,302,0.4,0.6,83,0.00,,,0.00,WUHU216HW,2013-11-19 04:11:00,
2013-11-18 22:21:00,22.6,18.5,29.87,WNW,286,0.5,0.6,84,0.00,,,0.00,WUHU216HW,2013-11-19 04:21:00,
2013-11-18 22:31:00,22.6,18.5,29.87,NW,309,0.9,1.9,84,0.00,,,0.00,WUHU216HW,2013-11-19 04:31:00,
2013-11-18 22:41:00,22.4,18.3,29.87,NW,305,0.7,1.0,84,0.00,,,0.00,WUHU216HW,2013-11-19 04:41:00,
2013-11-18 22:51:00,22.2,18.3,29.88,WNW,303,0.8,1.7,85,0.00,,,0.00,WUHU216HW,2013-11-19 04:51:00,
2013-11-18 23:01:00,22.2,18.3,29.88,WNW,295,1.0,2.4,85,0.00,,,0.00,WUHU216HW,2013-11-19 05:01:00,
2013-11-18 23:11:00,22.2,18.3,29.88,NW,315,0.6,1.7,85,0.00,,,0.00,WUHU216HW,2013-11-19 05:11:00,
2013-11-18 23:21:00,22.0,18.2,29.88,NW,312,0.9,2.4,85,0.00,,,0.00,WUHU216HW,2013-11-19 05:21:00,
2013-11-18 23:31:00,22.0,18.2,29.88,NW,320,0.5,0.6,85,0.00,,,0.00,WUHU216HW,2013-11-19 05:31:00,
2013-11-18 23:41:00,21.8,18.0,29.88,WNW,302,0.6,1.0,85,0.00,,,0.00,WUHU216HW,2013-11-19 05:41:00,
2013-11-18 23:51:00,21.5,17.7,29.88,WNW,300,0.7,1.0,85,0.00,,,0.00,WUHU216HW,2013-11-19 05:51:00,